createdAt,value
2018-02-17T00:01:56.218Z,101916.53
2018-02-17T00:04:24.535Z,101917.86
2018-02-17T00:06:52.883Z,101916.95
2018-02-17T00:09:21.202Z,101909.52
2018-02-17T00:11:49.546Z,101906.41
2018-02-17T00:14:17.893Z,101906.39
2018-02-17T00:16:46.302Z,101905.06
2018-02-17T00:19:14.646Z,101906.81
2018-02-17T00:21:43.059Z,101900.27
2018-02-17T00:24:11.403Z,101908.12
2018-02-17T00:26:39.818Z,101906.73
2018-02-17T00:29:08.162Z,101899.31
2018-02-17T00:31:36.573Z,101901.03
2018-02-17T00:34:04.914Z,101905.80
2018-02-17T00:36:33.334Z,101907.40
2018-02-17T00:39:01.714Z,101902.67
2018-02-17T00:41:30.134Z,101897.45
2018-02-17T00:43:58.574Z,101896.98
2018-02-17T00:46:26.894Z,101900.90
2018-02-17T00:48:55.233Z,101900.84
2018-02-17T00:51:23.658Z,101902.57
2018-02-17T00:53:52.086Z,101899.91
2018-02-17T00:56:20.405Z,101898.14
2018-02-17T00:58:48.747Z,101893.73
2018-02-17T01:01:17.070Z,101897.19
2018-02-17T01:03:45.410Z,101893.70
2018-02-17T01:06:13.730Z,101892.38
2018-02-17T01:08:42.083Z,101884.05
2018-02-17T01:11:10.402Z,101879.27
2018-02-17T01:13:38.798Z,101878.37
2018-02-17T01:16:07.190Z,101878.34
2018-02-17T01:18:35.534Z,101878.30
2018-02-17T01:21:03.942Z,101874.33
2018-02-17T01:23:32.282Z,101875.67
2018-02-17T01:26:00.601Z,101876.09
2018-02-17T01:28:28.975Z,101877.37
2018-02-17T01:30:57.293Z,101884.35
2018-02-17T01:33:25.726Z,101884.31
2018-02-17T01:35:54.054Z,101883.91
2018-02-17T01:38:22.494Z,101884.71
2018-02-17T01:40:50.820Z,101872.93
2018-02-17T01:43:19.243Z,101871.56
2018-02-17T01:45:47.931Z,101879.34
2018-02-17T01:48:16.258Z,101879.73
2018-02-17T01:50:44.583Z,101867.60
2018-02-17T01:53:12.921Z,101866.31
2018-02-17T01:55:41.241Z,101857.19
2018-02-17T01:58:09.588Z,101858.95
2018-02-17T02:00:37.907Z,101853.25
2018-02-17T02:03:06.266Z,101843.68
2018-02-17T02:05:34.642Z,101844.53
2018-02-17T02:08:02.982Z,101845.73
2018-02-17T02:10:31.403Z,101854.77
2018-02-17T02:12:59.750Z,101855.20
2018-02-17T02:15:28.154Z,101852.60
2018-02-17T02:17:56.474Z,101857.87
2018-02-17T02:20:24.814Z,101866.19
2018-02-17T02:22:53.135Z,101854.45
2018-02-17T02:25:21.473Z,101860.14
2018-02-17T02:27:49.786Z,101843.12
2018-02-17T02:30:18.214Z,101839.64
2018-02-17T02:32:46.605Z,101830.08
2018-02-17T02:35:14.970Z,101828.78
2018-02-17T02:37:43.286Z,101827.42
2018-02-17T02:40:11.725Z,101830.48
2018-02-17T02:42:40.047Z,101831.16
2018-02-17T02:45:08.391Z,101831.70
2018-02-17T02:47:36.713Z,101822.58
2018-02-17T02:50:05.129Z,101822.58
2018-02-17T02:52:33.455Z,101822.18
2018-02-17T02:55:01.798Z,101818.24
2018-02-17T02:57:30.118Z,101823.02
2018-02-17T02:59:58.543Z,101817.31
2018-02-17T03:02:26.862Z,101820.37
2018-02-17T03:04:55.294Z,101818.14
2018-02-17T03:07:23.614Z,101816.41
2018-02-17T03:09:52.045Z,101815.55
2018-02-17T03:12:20.367Z,101807.27
2018-02-17T03:14:48.798Z,101810.34
2018-02-17T03:17:17.126Z,101808.55
2018-02-17T03:19:45.466Z,101804.58
2018-02-17T03:22:13.794Z,101806.78
2018-02-17T03:24:42.134Z,101802.91
2018-02-17T03:27:10.453Z,101799.45
2018-02-17T03:29:38.862Z,101799.89
2018-02-17T03:32:07.242Z,101792.42
2018-02-17T03:34:35.621Z,101789.78
2018-02-17T03:37:03.943Z,101795.85
2018-02-17T03:39:32.378Z,101806.67
2018-02-17T03:42:00.749Z,101806.66
2018-02-17T03:44:29.089Z,101814.47
2018-02-17T03:46:57.501Z,101807.05
2018-02-17T03:49:25.883Z,101806.17
2018-02-17T03:51:54.193Z,101813.56
2018-02-17T03:54:22.630Z,101813.53
2018-02-17T03:56:51.010Z,101797.88
2018-02-17T03:59:19.385Z,101804.38
2018-02-17T04:01:47.802Z,101796.96
2018-02-17T04:04:16.241Z,101803.47
2018-02-17T04:06:44.562Z,101803.78
2018-02-17T04:09:12.997Z,101807.64
2018-02-17T04:11:41.310Z,101798.52
2018-02-17T04:14:09.749Z,101800.27
2018-02-17T04:16:38.065Z,101797.63
2018-02-17T04:19:06.402Z,101804.99
2018-02-17T04:21:34.782Z,101800.64
2018-02-17T04:24:03.094Z,101803.63
2018-02-17T04:26:31.533Z,101801.02
2018-02-17T04:28:59.850Z,101798.35
2018-02-17T04:31:28.284Z,101790.15
2018-02-17T04:33:56.666Z,101800.98
2018-02-17T04:36:25.038Z,101800.82
2018-02-17T04:38:53.358Z,101802.23
2018-02-17T04:41:31.604Z,101793.21
2018-02-17T04:43:59.918Z,101799.47
2018-02-17T04:46:31.082Z,101794.74
2018-02-17T04:49:05.003Z,101799.86
2018-02-17T04:51:39.061Z,101799.70
2018-02-17T04:54:09.849Z,101789.25
2018-02-17T04:56:41.117Z,101782.63
2018-02-17T04:59:15.878Z,101782.94
2018-02-17T05:04:54.438Z,101783.56
2018-02-17T05:07:33.566Z,101783.95
2018-02-17T05:10:01.914Z,101772.42
2018-02-17T05:12:30.242Z,101765.83
2018-02-17T05:15:04.098Z,101764.64
2018-02-17T05:17:37.966Z,101768.23
2018-02-17T05:20:11.879Z,101761.96
2018-02-17T05:25:51.862Z,101759.75
2018-02-17T05:28:36.863Z,101776.31
2018-02-17T05:31:05.198Z,101766.89
2018-02-17T05:36:39.299Z,101761.88
2018-02-17T05:39:07.637Z,101763.94
2018-02-17T05:41:55.681Z,101758.39
2018-02-17T05:47:45.018Z,101761.54
2018-02-17T05:50:13.360Z,101757.58
2018-02-17T05:52:41.675Z,101757.11
2018-02-17T05:55:10.011Z,101758.78
2018-02-17T05:57:38.330Z,101753.97
2018-02-17T06:00:06.653Z,101744.39
2018-02-17T06:02:34.989Z,101742.19
2018-02-17T06:05:03.316Z,101741.71
2018-02-17T06:07:31.650Z,101742.58
2018-02-17T06:09:59.968Z,101732.56
2018-02-17T06:12:28.306Z,101733.42
2018-02-17T06:14:56.622Z,101726.92
2018-02-17T06:17:24.966Z,101726.91
2018-02-17T06:19:53.279Z,101726.89
2018-02-17T06:22:21.618Z,101732.38
2018-02-17T06:24:49.943Z,101713.79
2018-02-17T06:27:18.290Z,101717.23
2018-02-17T06:29:46.618Z,101717.37
2018-02-17T06:32:14.967Z,101720.09
2018-02-17T06:34:43.283Z,101719.74
2018-02-17T06:37:11.628Z,101721.93
2018-02-17T06:39:39.949Z,101714.98
2018-02-17T06:42:08.303Z,101716.53
2018-02-17T06:44:36.632Z,101716.95
2018-02-17T06:47:04.982Z,101715.69
2018-02-17T06:49:33.318Z,101716.58
2018-02-17T06:52:01.662Z,101714.44
2018-02-17T06:54:29.990Z,101718.52
2018-02-17T06:56:58.388Z,101722.08
2018-02-17T06:59:26.676Z,101721.20
2018-02-17T07:01:55.022Z,101715.59
2018-02-17T07:04:23.353Z,101716.09
2018-02-17T07:06:51.685Z,101718.28
2018-02-17T07:09:20.010Z,101713.08
2018-02-17T07:11:48.350Z,101717.86
2018-02-17T07:14:16.673Z,101721.82
2018-02-17T07:16:45.006Z,101721.83
2018-02-17T07:19:13.321Z,101713.59
2018-02-17T07:21:41.662Z,101719.70
2018-02-17T07:24:09.985Z,101726.20
2018-02-17T07:26:38.330Z,101723.17
2018-02-17T07:29:06.653Z,101715.84
2018-02-17T07:31:34.997Z,101711.55
2018-02-17T07:34:03.313Z,101712.03
2018-02-17T07:36:31.658Z,101711.63
2018-02-17T07:38:59.983Z,101711.25
2018-02-17T07:41:28.336Z,101702.58
2018-02-17T07:43:56.653Z,101697.02
2018-02-17T07:46:24.998Z,101693.14
2018-02-17T07:48:53.321Z,101693.63
2018-02-17T07:51:21.670Z,101685.38
2018-02-17T07:53:49.994Z,101686.12
2018-02-17T07:56:18.342Z,101688.42
2018-02-17T07:58:46.674Z,101683.11
2018-02-17T08:01:14.994Z,101672.11
2018-02-17T08:03:43.341Z,101663.33
2018-02-17T08:06:11.665Z,101659.59
2018-02-17T08:08:40.018Z,101665.91
2018-02-17T08:11:08.341Z,101658.02
2018-02-17T08:13:36.691Z,101661.33
2018-02-17T08:16:05.009Z,101661.66
2018-02-17T08:18:33.354Z,101662.34
2018-02-17T08:21:01.683Z,101659.86
2018-02-17T08:23:30.027Z,101662.98
2018-02-17T08:25:58.356Z,101657.67
2018-02-17T08:28:26.701Z,101659.77
2018-02-17T08:30:55.034Z,101656.66
2018-02-17T08:33:23.381Z,101659.79
2018-02-17T08:35:51.722Z,101657.73
2018-02-17T08:38:20.074Z,101653.97
2018-02-17T08:40:48.403Z,101656.18
2018-02-17T08:43:16.755Z,101650.39
2018-02-17T08:45:45.087Z,101653.05
2018-02-17T08:48:13.436Z,101654.43
2018-02-17T08:50:41.758Z,101663.64
2018-02-17T08:53:10.110Z,101662.83
2018-02-17T08:55:38.437Z,101662.48
2018-02-17T08:58:06.789Z,101666.05
2018-02-17T09:00:35.132Z,101663.84
2018-02-17T09:03:03.462Z,101663.89
2018-02-17T09:05:31.795Z,101657.05
2018-02-17T09:08:00.150Z,101656.17
2018-02-17T09:10:40.434Z,101652.70
2018-02-17T09:13:08.787Z,101649.63
2018-02-17T09:15:37.114Z,101654.69
2018-02-17T09:18:05.469Z,101648.91
2018-02-17T09:20:33.798Z,101646.31
2018-02-17T09:23:02.260Z,101651.70
2018-02-17T09:25:30.589Z,101655.05
2018-02-17T09:27:59.105Z,101653.00
2018-02-17T09:30:27.430Z,101652.62
2018-02-17T09:32:55.785Z,101650.08
2018-02-17T09:35:24.111Z,101648.84
2018-02-17T09:37:52.569Z,101655.47
2018-02-17T09:40:20.889Z,101654.20
2018-02-17T09:42:49.262Z,101654.22
2018-02-17T09:45:17.593Z,101648.14
2018-02-17T09:47:46.017Z,101646.41
2018-02-17T09:50:14.355Z,101645.55
2018-02-17T09:52:42.705Z,101649.95
2018-02-17T09:55:11.034Z,101653.00
2018-02-17T09:57:39.382Z,101656.07
2018-02-17T10:00:07.810Z,101653.00
2018-02-17T10:02:36.154Z,101646.46
2018-02-17T10:05:04.484Z,101646.45
2018-02-17T10:07:32.835Z,101642.95
2018-02-17T10:10:01.329Z,101658.23
2018-02-17T10:12:29.691Z,101658.61
2018-02-17T10:14:58.046Z,101664.37
2018-02-17T10:17:26.426Z,101675.72
2018-02-17T10:19:54.782Z,101676.16
2018-02-17T10:22:23.953Z,101678.31
2018-02-17T10:24:52.399Z,101677.90
2018-02-17T10:27:20.779Z,101677.45
2018-02-17T10:29:49.137Z,101676.09
2018-02-17T10:32:17.475Z,101680.02
2018-02-17T10:34:45.830Z,101673.92
2018-02-17T10:37:14.162Z,101679.59
2018-02-17T10:39:42.562Z,101680.95
2018-02-17T10:42:10.890Z,101682.24
2018-02-17T10:44:39.314Z,101697.06
2018-02-17T10:47:07.639Z,101684.42
2018-02-17T10:49:36.126Z,101684.37
2018-02-17T10:52:04.550Z,101691.41
2018-02-17T10:54:33.478Z,101684.41
2018-02-17T10:57:02.087Z,101683.14
2018-02-17T10:59:30.489Z,101681.81
2018-02-17T11:01:58.927Z,101677.44
2018-02-17T11:04:27.307Z,101676.99
2018-02-17T11:06:55.630Z,101675.25
2018-02-17T11:09:24.471Z,101673.11
2018-02-17T11:11:52.794Z,101669.16
2018-02-17T11:14:21.634Z,101670.87
2018-02-17T11:16:50.322Z,101672.23
2018-02-17T11:19:19.466Z,101668.72
2018-02-17T11:21:47.861Z,101664.34
2018-02-17T11:24:16.384Z,101659.12
2018-02-17T11:26:44.941Z,101660.41
2018-02-17T11:29:13.291Z,101658.25
2018-02-17T11:31:41.618Z,101659.12
2018-02-17T11:34:10.442Z,101658.67
2018-02-17T11:36:38.828Z,101658.66
2018-02-17T11:39:07.190Z,101658.27
2018-02-17T11:41:36.542Z,101661.73
2018-02-17T11:44:04.978Z,101664.36
2018-02-17T11:46:33.322Z,101658.69
2018-02-17T11:49:01.676Z,101657.36
2018-02-17T11:51:30.289Z,101650.39
2018-02-17T11:54:00.746Z,101646.44
2018-02-17T11:56:29.075Z,101647.31
2018-02-17T11:58:57.426Z,101642.94
2018-02-17T12:01:25.762Z,101641.65
2018-02-17T12:03:54.142Z,101644.69
2018-02-17T12:06:23.409Z,101645.15
2018-02-17T12:08:51.833Z,101646.89
2018-02-17T12:11:20.194Z,101654.73
2018-02-17T12:13:48.542Z,101661.33
2018-02-17T12:16:16.895Z,101663.08
2018-02-17T12:18:45.242Z,101655.64
2018-02-17T12:21:13.586Z,101653.45
2018-02-17T12:23:41.981Z,101652.57
2018-02-17T12:26:11.259Z,101655.17
2018-02-17T12:28:39.659Z,101653.00
2018-02-17T12:31:08.010Z,101653.00
2018-02-17T12:33:36.406Z,101642.04
2018-02-17T12:36:04.795Z,101642.47
2018-02-17T12:38:33.125Z,101639.84
2018-02-17T12:41:01.542Z,101642.02
2018-02-17T12:43:30.485Z,101636.78
2018-02-17T12:45:58.905Z,101635.48
2018-02-17T12:48:27.234Z,101632.83
2018-02-17T12:50:55.682Z,101638.52
2018-02-17T12:53:24.036Z,101635.02
2018-02-17T12:55:52.358Z,101636.76
2018-02-17T12:58:20.686Z,101628.03
2018-02-17T13:00:49.069Z,101628.45
2018-02-17T13:03:17.453Z,101632.83
2018-02-17T13:05:45.814Z,101632.81
2018-02-17T13:08:14.209Z,101627.98
2018-02-17T13:10:42.562Z,101625.80
2018-02-17T13:13:10.887Z,101631.91
2018-02-17T13:15:39.238Z,101637.12
2018-02-17T13:18:07.674Z,101634.92
2018-02-17T13:20:36.088Z,101634.86
2018-02-17T13:23:05.086Z,101643.61
2018-02-17T13:25:33.463Z,101640.11
2018-02-17T13:28:01.790Z,101630.02
2018-02-17T13:30:30.214Z,101633.94
2018-02-17T13:32:58.596Z,101631.73
2018-02-17T13:35:26.946Z,101630.88
2018-02-17T13:37:55.347Z,101626.02
2018-02-17T13:40:23.697Z,101629.52
2018-02-17T13:42:52.546Z,101627.75
2018-02-17T13:45:20.894Z,101630.34
2018-02-17T13:47:49.227Z,101628.58
2018-02-17T13:50:17.646Z,101632.09
2018-02-17T13:52:45.974Z,101631.20
2018-02-17T13:55:14.330Z,101632.55
2018-02-17T13:57:42.670Z,101638.56
2018-02-17T14:00:11.052Z,101628.59
2018-02-17T14:02:40.291Z,101631.24
2018-02-17T14:05:08.722Z,101637.84
2018-02-17T14:07:37.073Z,101632.98
2018-02-17T14:10:05.482Z,101636.52
2018-02-17T14:12:33.815Z,101644.92
2018-02-17T14:15:02.175Z,101644.88
2018-02-17T14:17:30.503Z,101646.61
2018-02-17T14:19:58.851Z,101645.73
2018-02-17T14:22:27.194Z,101647.55
2018-02-17T14:24:55.550Z,101643.58
2018-02-17T14:27:23.886Z,101645.75
2018-02-17T14:29:52.299Z,101651.44
2018-02-17T14:32:20.726Z,101658.00
2018-02-17T14:34:49.034Z,101658.44
2018-02-17T14:37:17.425Z,101657.96
2018-02-17T14:39:45.806Z,101658.44
2018-02-17T14:42:14.183Z,101659.27
2018-02-17T14:44:42.518Z,101657.14
2018-02-17T14:47:10.871Z,101654.93
2018-02-17T14:49:39.194Z,101655.38
2018-02-17T14:52:07.546Z,101651.91
2018-02-17T14:54:35.894Z,101656.27
2018-02-17T14:57:04.290Z,101655.43
2018-02-17T14:59:32.831Z,101656.72
2018-02-17T15:02:01.214Z,101664.16
2018-02-17T15:04:29.537Z,101669.41
2018-02-17T15:06:57.886Z,101664.16
2018-02-17T15:09:26.214Z,101660.67
2018-02-17T15:11:54.743Z,101663.73
2018-02-17T15:14:23.093Z,101669.42
2018-02-17T15:16:51.719Z,101673.38
2018-02-17T15:19:20.063Z,101665.95
2018-02-17T15:21:48.477Z,101664.66
2018-02-17T15:24:18.133Z,101665.98
2018-02-17T15:26:46.643Z,101667.31
2018-02-17T15:29:14.963Z,101669.94
2018-02-17T15:31:43.310Z,101679.14
2018-02-17T15:34:12.646Z,101673.91
2018-02-17T15:36:40.994Z,101673.02
2018-02-17T15:39:09.322Z,101677.84
2018-02-17T15:41:38.358Z,101680.02
2018-02-17T15:44:06.686Z,101674.34
2018-02-17T15:46:35.080Z,101680.94
2018-02-17T15:49:03.423Z,101683.14
2018-02-17T15:51:31.864Z,101682.70
2018-02-17T15:54:01.114Z,101675.69
2018-02-17T15:56:29.458Z,101687.09
2018-02-17T15:58:57.806Z,101687.11
2018-02-17T16:01:26.150Z,101687.11
2018-02-17T16:03:54.490Z,101692.80
2018-02-17T16:06:22.842Z,101688.82
2018-02-17T16:08:51.202Z,101696.28
2018-02-17T16:11:19.549Z,101702.41
2018-02-17T16:13:47.878Z,101703.72
2018-02-17T16:16:16.224Z,101702.87
2018-02-17T16:18:44.545Z,101700.23
2018-02-17T16:21:12.911Z,101705.08
2018-02-17T16:23:41.265Z,101710.33
2018-02-17T16:26:09.617Z,101710.31
2018-02-17T16:28:37.946Z,101707.24
2018-02-17T16:31:06.310Z,101707.69
2018-02-17T16:33:34.651Z,101712.05
2018-02-17T16:36:02.986Z,101714.24
2018-02-17T16:38:31.343Z,101716.86
2018-02-17T16:41:00.629Z,101719.91
2018-02-17T16:43:28.982Z,101717.72
2018-02-17T16:45:57.320Z,101720.38
2018-02-17T16:48:25.674Z,101723.45
2018-02-17T16:50:54.011Z,101728.63
2018-02-17T16:53:22.358Z,101731.44
2018-02-17T16:55:50.688Z,101732.94
2018-02-17T16:58:19.033Z,101739.56
2018-02-17T17:00:47.542Z,101731.73
2018-02-17T17:03:15.885Z,101736.10
2018-02-17T17:05:44.218Z,101747.05
2018-02-17T17:08:12.570Z,101754.92
2018-02-17T17:10:40.899Z,101754.50
2018-02-17T17:13:09.247Z,101754.94
2018-02-17T17:15:37.573Z,101759.31
2018-02-17T17:18:05.925Z,101760.62
2018-02-17T17:20:35.173Z,101763.69
2018-02-17T17:23:03.518Z,101764.53
2018-02-17T17:25:31.857Z,101762.77
2018-02-17T17:28:00.202Z,101760.17
2018-02-17T17:30:28.533Z,101766.30
2018-02-17T17:32:56.882Z,101765.37
2018-02-17T17:35:25.230Z,101771.48
2018-02-17T17:37:53.590Z,101774.12
2018-02-17T17:40:21.918Z,101768.41
2018-02-17T17:42:50.272Z,101771.45
2018-02-17T17:45:18.602Z,101778.02
2018-02-17T17:47:46.954Z,101783.30
2018-02-17T17:50:15.592Z,101777.16
2018-02-17T17:52:44.733Z,101790.27
2018-02-17T17:55:13.081Z,101786.80
2018-02-17T17:57:41.462Z,101788.95
2018-02-17T18:00:09.886Z,101788.09
2018-02-17T18:02:38.234Z,101791.97
2018-02-17T18:05:06.643Z,101790.59
2018-02-17T18:07:34.998Z,101791.05
2018-02-17T18:10:03.326Z,101789.73
2018-02-17T18:12:31.675Z,101798.45
2018-02-17T18:15:00.003Z,101791.02
2018-02-17T18:17:28.354Z,101792.31
2018-02-17T18:19:56.682Z,101798.80
2018-02-17T18:22:25.034Z,101795.28
2018-02-17T18:24:53.357Z,101802.69
2018-02-17T18:27:21.714Z,101796.99
2018-02-17T18:29:50.043Z,101803.53
2018-02-17T18:32:18.410Z,101803.06
2018-02-17T18:34:46.730Z,101800.40
2018-02-17T18:37:15.062Z,101803.91
2018-02-17T18:39:43.898Z,101803.44
2018-02-17T18:42:12.222Z,101807.78
2018-02-17T18:44:40.578Z,101807.30
2018-02-17T18:47:08.910Z,101810.34
2018-02-17T18:49:37.302Z,101805.19
2018-02-17T18:52:05.702Z,101804.00
2018-02-17T18:54:34.062Z,101808.78
2018-02-17T18:57:02.466Z,101811.84
2018-02-17T18:59:31.110Z,101805.70
2018-02-17T19:01:59.523Z,101814.39
2018-02-17T19:04:27.878Z,101806.49
2018-02-17T19:06:56.206Z,101809.05
2018-02-17T19:09:24.555Z,101806.84
2018-02-17T19:11:52.882Z,101812.92
2018-02-17T19:14:21.878Z,101812.40
2018-02-17T19:16:50.213Z,101811.93
2018-02-17T19:19:18.673Z,101814.61
2018-02-17T19:21:47.002Z,101819.37
2018-02-17T19:24:15.432Z,101819.29
2018-02-17T19:26:43.763Z,101821.92
2018-02-17T19:29:12.183Z,101823.30
2018-02-17T19:31:40.521Z,101826.80
2018-02-17T19:34:08.875Z,101820.68
2018-02-17T19:36:37.211Z,101823.30
2018-02-17T19:39:07.027Z,101824.12
2018-02-17T19:41:35.406Z,101822.34
2018-02-17T19:44:03.784Z,101831.48
2018-02-17T19:46:32.119Z,101831.92
2018-02-17T19:49:00.478Z,101839.74
2018-02-17T19:51:28.829Z,101834.44
2018-02-17T19:53:57.292Z,101837.49
2018-02-17T19:56:25.623Z,101833.54
2018-02-17T19:58:54.050Z,101834.38
2018-02-17T20:01:22.383Z,101838.74
2018-02-17T20:03:50.801Z,101838.23
2018-02-17T20:06:20.116Z,101838.22
2018-02-17T20:08:50.128Z,101838.62
2018-02-17T20:11:18.782Z,101836.00
2018-02-17T20:13:47.171Z,101842.98
2018-02-17T20:16:16.430Z,101843.84
2018-02-17T20:18:44.899Z,101845.53
2018-02-17T20:21:13.215Z,101850.55
2018-02-17T20:23:41.610Z,101851.45
2018-02-17T20:26:09.930Z,101853.23
2018-02-17T20:28:38.399Z,101855.84
2018-02-17T20:31:06.750Z,101856.26
2018-02-17T20:33:35.136Z,101853.63
2018-02-17T20:36:04.361Z,101856.58
2018-02-17T20:38:32.722Z,101859.63
2018-02-17T20:41:01.058Z,101869.41
2018-02-17T20:43:29.431Z,101868.61
2018-02-17T20:45:57.872Z,101864.55
2018-02-17T20:48:26.355Z,101867.53
2018-02-17T20:50:54.770Z,101864.15
2018-02-17T20:53:42.312Z,101865.93
2018-02-17T20:56:11.560Z,101862.82
2018-02-17T20:58:39.931Z,101865.50
2018-02-17T21:01:08.508Z,101871.18
2018-02-17T21:03:37.866Z,101865.81
2018-02-17T21:06:06.279Z,101860.13
2018-02-17T21:08:34.662Z,101870.97
2018-02-17T21:11:03.006Z,101878.27
2018-02-17T21:13:31.414Z,101878.34
2018-02-17T21:16:00.847Z,101881.77
2018-02-17T21:18:29.327Z,101875.59
2018-02-17T21:20:57.750Z,101884.84
2018-02-17T21:23:26.142Z,101886.00
2018-02-17T21:25:54.494Z,101886.42
2018-02-17T21:28:22.827Z,101885.86
2018-02-17T21:30:51.184Z,101891.03
2018-02-17T21:33:19.546Z,101888.03
2018-02-17T21:35:47.915Z,101894.09
2018-02-17T21:38:16.242Z,101900.58
2018-02-17T21:40:44.604Z,101902.31
2018-02-17T21:43:12.983Z,101895.38
2018-02-17T21:45:42.498Z,101910.57
2018-02-17T21:48:10.865Z,101903.97
2018-02-17T21:50:39.203Z,101916.52
2018-02-17T21:53:07.538Z,101924.42
2018-02-17T21:55:35.887Z,101924.40
2018-02-17T21:58:04.247Z,101922.22
2018-02-17T22:00:32.598Z,101922.64
2018-02-17T22:03:00.932Z,101928.92
2018-02-17T22:05:30.014Z,101934.59
2018-02-17T22:07:58.340Z,101935.47
2018-02-17T22:10:26.738Z,101942.84
2018-02-17T22:12:55.879Z,101939.80
2018-02-17T22:15:24.230Z,101938.41
2018-02-17T22:17:52.571Z,101937.97
2018-02-17T22:20:20.934Z,101941.77
2018-02-17T22:22:49.265Z,101949.95
2018-02-17T22:25:17.746Z,101948.91
2018-02-17T22:27:46.078Z,101953.73
2018-02-17T22:30:14.488Z,101954.61
2018-02-17T22:32:42.806Z,101952.41
2018-02-17T22:35:11.149Z,101955.59
2018-02-17T22:37:39.633Z,101955.53
2018-02-17T22:40:07.974Z,101958.73
2018-02-17T22:42:36.306Z,101959.30
2018-02-17T22:45:04.658Z,101960.91
2018-02-17T22:47:32.990Z,101963.98
2018-02-17T22:50:01.344Z,101966.89
2018-02-17T22:52:29.668Z,101967.62
2018-02-17T22:54:58.016Z,101972.47
2018-02-17T22:57:26.378Z,101971.28
2018-02-17T22:59:54.734Z,101964.86
2018-02-17T23:02:23.058Z,101971.61
2018-02-17T23:04:52.286Z,101970.73
2018-02-17T23:07:20.619Z,101974.70
2018-02-17T23:09:48.953Z,101975.43
2018-02-17T23:12:17.314Z,101983.20
2018-02-17T23:14:45.735Z,101980.75
2018-02-17T23:17:14.090Z,101980.90
2018-02-17T23:19:42.439Z,101975.66
2018-02-17T23:22:10.776Z,101979.45
2018-02-17T23:24:39.140Z,101982.53
2018-02-17T23:27:07.467Z,101985.22
2018-02-17T23:29:35.790Z,101982.13
2018-02-17T23:32:04.134Z,101982.36
2018-02-17T23:34:32.463Z,101980.70
2018-02-17T23:37:00.810Z,101979.02
2018-02-17T23:39:29.135Z,101977.64
2018-02-17T23:41:57.477Z,101979.34
2018-02-17T23:44:25.802Z,101976.34
2018-02-17T23:46:54.146Z,101974.56
2018-02-17T23:49:22.475Z,101974.56
2018-02-17T23:51:50.877Z,101975.34
2018-02-17T23:54:19.258Z,101979.28
2018-02-17T23:56:47.635Z,101969.73
2018-02-17T23:59:15.961Z,101974.39
